createdAt,value
2018-12-20T00:00:43.349Z,9.58
2018-12-20T00:03:15.785Z,10.30
2018-12-20T00:05:50.292Z,10.23
2018-12-20T00:08:25.231Z,13.60
2018-12-20T00:10:55.364Z,12.60
2018-12-20T00:13:40.495Z,14.98
2018-12-20T00:16:12.561Z,11.88
2018-12-20T00:18:44.469Z,11.45
2018-12-20T00:21:16.627Z,11.65
2018-12-20T00:23:48.690Z,14.03
2018-12-20T00:26:18.131Z,12.47
2018-12-20T00:31:55.298Z,14.25
2018-12-20T00:34:27.047Z,13.75
2018-12-20T00:36:59.114Z,13.88
2018-12-20T00:39:31.614Z,13.48
2018-12-20T00:42:06.184Z,14.18
2018-12-20T00:44:37.736Z,13.65
2018-12-20T00:53:08.624Z,14.07
2018-12-20T00:55:40.505Z,12.78
2018-12-20T00:58:11.837Z,19.10
2018-12-20T01:00:43.996Z,14.10
2018-12-20T01:03:15.487Z,14.55
2018-12-20T01:05:47.525Z,14.65
2018-12-20T01:08:19.057Z,16.90
2018-12-20T01:10:51.274Z,16.62
2018-12-20T01:13:23.526Z,16.90
2018-12-20T01:15:55.481Z,18.17
2018-12-20T01:18:27.621Z,16.02
2018-12-20T01:20:59.673Z,16.07
2018-12-20T01:29:31.810Z,15.38
2018-12-20T01:32:03.817Z,14.18
2018-12-20T01:34:35.922Z,18.95
2018-12-20T01:37:07.290Z,15.85
2018-12-20T01:39:42.244Z,16.07
2018-12-20T01:42:13.853Z,14.60
2018-12-20T01:44:53.352Z,14.58
2018-12-20T01:47:20.042Z,12.93
2018-12-20T01:49:50.298Z,12.50
2018-12-20T01:52:22.608Z,13.25
2018-12-20T01:54:57.998Z,11.40
2018-12-20T01:57:32.551Z,15.43
2018-12-20T02:00:08.422Z,10.38
2018-12-20T02:02:39.892Z,14.10
2018-12-20T02:05:10.062Z,18.30
2018-12-20T02:07:41.470Z,11.30
2018-12-20T02:10:16.164Z,10.72
2018-12-20T02:12:50.071Z,14.43
2018-12-20T02:15:18.778Z,13.53
2018-12-20T02:17:52.578Z,13.95
2018-12-20T02:20:24.806Z,16.57
2018-12-20T02:22:59.228Z,16.12
2018-12-20T02:25:30.910Z,14.98
2018-12-20T02:28:02.716Z,14.43
2018-12-20T02:30:34.967Z,18.67
2018-12-20T02:33:07.329Z,22.48
2018-12-20T02:35:42.193Z,18.50
2018-12-20T02:38:14.328Z,15.38
2018-12-20T02:40:46.522Z,16.15
2018-12-20T02:43:33.460Z,16.62
2018-12-20T02:46:05.435Z,16.07
2018-12-20T02:48:37.591Z,17.87
2018-12-20T02:51:09.531Z,14.78
2018-12-20T02:53:41.551Z,17.55
2018-12-20T02:56:13.628Z,15.78
2018-12-20T02:58:48.006Z,18.25
2018-12-20T03:06:34.925Z,17.55
2018-12-20T03:09:08.584Z,15.05
2018-12-20T03:11:42.350Z,18.27
2018-12-20T03:14:14.062Z,15.90
2018-12-20T03:16:46.681Z,16.70
2018-12-20T03:19:18.629Z,17.40
2018-12-20T03:27:48.266Z,17.02
2018-12-20T03:30:20.740Z,17.73
2018-12-20T03:32:53.522Z,20.43
2018-12-20T03:35:25.187Z,17.17
2018-12-20T03:37:57.374Z,17.42
2018-12-20T03:40:29.851Z,19.50
2018-12-20T03:43:01.962Z,18.95
2018-12-20T03:45:33.811Z,21.60
2018-12-20T03:48:05.963Z,15.95
2018-12-20T03:50:38.792Z,16.37
2018-12-20T03:53:10.497Z,14.63
2018-12-20T03:55:49.194Z,21.80
2018-12-20T03:58:21.753Z,14.45
2018-12-20T04:00:53.395Z,16.23
2018-12-20T04:03:40.683Z,14.83
2018-12-20T04:06:14.614Z,16.60
2018-12-20T04:08:42.945Z,18.57
2018-12-20T04:11:14.354Z,15.55
2018-12-20T04:19:51.883Z,18.37
2018-12-20T04:22:23.950Z,17.62
2018-12-20T04:24:55.809Z,18.37
2018-12-20T04:27:28.087Z,14.53
2018-12-20T04:29:59.991Z,17.42
2018-12-20T04:32:32.186Z,19.55
2018-12-20T04:35:03.790Z,15.13
2018-12-20T04:37:35.944Z,14.60
2018-12-20T04:43:06.463Z,15.93
2018-12-20T04:48:33.970Z,13.25
2018-12-20T04:51:08.646Z,14.87
2018-12-20T04:53:38.088Z,13.70
2018-12-20T04:56:09.729Z,14.63
2018-12-20T04:58:41.760Z,15.98
2018-12-20T05:01:10.331Z,11.65
2018-12-20T05:03:42.436Z,14.10
2018-12-20T05:06:14.747Z,12.50
2018-12-20T05:08:46.334Z,12.45
2018-12-20T05:11:18.421Z,12.07
2018-12-20T05:13:48.018Z,10.18
2018-12-20T05:16:19.980Z,12.43
2018-12-20T05:18:51.896Z,11.63
2018-12-20T05:21:25.687Z,11.88
2018-12-20T05:23:57.464Z,9.93
2018-12-20T05:26:25.759Z,11.10
2018-12-20T05:28:59.771Z,10.55
2018-12-20T05:31:31.200Z,8.58
2018-12-20T05:34:03.852Z,11.88
2018-12-20T05:36:32.518Z,12.20
2018-12-20T05:39:01.721Z,10.58
2018-12-20T05:41:30.467Z,9.75
2018-12-20T05:46:54.911Z,11.45
2018-12-20T05:52:19.502Z,10.45
2018-12-20T05:54:47.794Z,10.85
2018-12-20T05:57:19.084Z,10.03
2018-12-20T05:59:47.751Z,11.83
2018-12-20T06:02:34.743Z,12.10
2018-12-20T06:05:04.561Z,10.82
2018-12-20T06:07:33.157Z,11.08
2018-12-20T06:10:01.576Z,9.50
2018-12-20T06:12:49.415Z,10.68
2018-12-20T06:15:17.998Z,11.08
2018-12-20T06:17:48.053Z,9.18
2018-12-20T06:20:16.498Z,10.90
2018-12-20T06:22:48.790Z,10.82
2018-12-20T06:25:17.301Z,12.28
2018-12-20T06:27:45.620Z,12.23
2018-12-20T06:30:17.489Z,10.55
2018-12-20T06:32:49.350Z,12.45
2018-12-20T06:35:19.095Z,11.73
2018-12-20T06:37:49.189Z,9.48
2018-12-20T06:40:21.225Z,11.93
2018-12-20T06:42:53.240Z,11.53
2018-12-20T06:45:25.477Z,11.35
2018-12-20T06:47:56.987Z,13.53
2018-12-20T06:59:33.497Z,12.80
2018-12-20T07:05:05.082Z,11.75
2018-12-20T07:07:34.945Z,13.35
2018-12-20T07:10:08.600Z,11.38
2018-12-20T07:12:42.969Z,10.88
2018-12-20T07:15:14.708Z,9.20
2018-12-20T07:17:46.092Z,11.43
2018-12-20T07:20:18.431Z,10.80
2018-12-20T07:22:50.653Z,12.98
2018-12-20T07:25:25.188Z,9.90
2018-12-20T07:30:52.829Z,10.65
2018-12-20T07:33:24.220Z,11.60
2018-12-20T07:35:58.816Z,10.25
2018-12-20T07:38:30.737Z,11.35
2018-12-20T07:41:00.630Z,10.40
2018-12-20T07:43:34.177Z,10.10
2018-12-20T07:46:05.934Z,8.88
2018-12-20T07:48:42.566Z,10.05
2018-12-20T07:51:14.100Z,9.93
2018-12-20T07:53:47.729Z,13.95
2018-12-20T07:56:19.255Z,10.72
2018-12-20T07:58:53.096Z,10.65
2018-12-20T08:01:27.157Z,10.40
2018-12-20T08:04:07.737Z,12.78
2018-12-20T08:06:39.095Z,11.28
2018-12-20T08:09:10.424Z,12.58
2018-12-20T08:11:42.540Z,10.03
2018-12-20T08:14:14.440Z,9.53
2018-12-20T08:16:48.952Z,9.50
2018-12-20T08:19:21.769Z,9.05
2018-12-20T08:21:53.750Z,9.48
2018-12-20T08:24:25.614Z,10.20
2018-12-20T08:27:00.236Z,10.82
2018-12-20T08:29:34.405Z,8.40
2018-12-20T08:32:06.037Z,9.60
2018-12-20T08:34:40.817Z,12.05
2018-12-20T08:37:12.358Z,8.98
2018-12-20T08:39:47.356Z,8.35
2018-12-20T08:42:18.678Z,9.48
2018-12-20T08:44:50.889Z,11.53
2018-12-20T08:47:24.570Z,9.88
2018-12-20T08:49:54.078Z,9.18
2018-12-20T08:52:26.206Z,9.50
2018-12-20T08:54:58.444Z,8.98
2018-12-20T08:57:30.589Z,10.28
2018-12-20T09:00:06.051Z,13.62
2018-12-20T09:02:37.745Z,9.15
2018-12-20T09:05:11.259Z,8.40
2018-12-20T09:07:42.965Z,8.38
2018-12-20T09:10:16.793Z,9.35
2018-12-20T09:12:57.252Z,11.70
2018-12-20T09:18:00.446Z,10.23
2018-12-20T09:20:32.830Z,9.53
2018-12-20T09:23:04.377Z,9.90
2018-12-20T09:25:34.046Z,10.23
2018-12-20T09:28:06.262Z,9.03
2018-12-20T09:30:38.491Z,9.68
2018-12-20T09:33:12.952Z,10.00
2018-12-20T09:35:44.566Z,9.43
2018-12-20T09:38:14.729Z,6.80
2018-12-20T09:40:50.479Z,7.12
2018-12-20T09:43:18.804Z,7.05
2018-12-20T09:45:50.962Z,7.85
2018-12-20T09:48:22.942Z,7.05
2018-12-20T09:50:54.285Z,9.33
2018-12-20T09:53:29.884Z,7.22
2018-12-20T09:56:03.789Z,7.37
2018-12-20T09:58:35.341Z,9.05
2018-12-20T10:04:08.463Z,11.10
2018-12-20T10:06:38.365Z,6.80
2018-12-20T10:09:10.522Z,9.05
2018-12-20T10:11:40.449Z,7.62
2018-12-20T10:14:23.832Z,7.87
2018-12-20T10:16:55.477Z,8.05
2018-12-20T10:19:29.232Z,7.05
2018-12-20T10:21:58.669Z,10.45
2018-12-20T10:24:30.738Z,7.33
2018-12-20T10:27:11.856Z,6.90
2018-12-20T10:29:44.066Z,11.35
2018-12-20T10:32:18.418Z,8.65
2018-12-20T10:34:48.257Z,8.80
2018-12-20T10:37:20.425Z,7.78
2018-12-20T10:39:52.715Z,8.20
2018-12-20T10:42:25.057Z,9.60
2018-12-20T10:44:57.021Z,9.78
2018-12-20T10:47:29.539Z,9.53
2018-12-20T10:49:58.906Z,16.70
2018-12-20T10:52:30.962Z,9.73
2018-12-20T10:55:05.565Z,7.67
2018-12-20T10:57:37.674Z,7.45
2018-12-20T11:00:08.812Z,7.70
2018-12-20T11:06:44.249Z,12.68
2018-12-20T11:09:21.610Z,10.32
2018-12-20T11:11:58.653Z,9.45
2018-12-20T11:14:30.234Z,8.40
2018-12-20T11:19:53.261Z,11.25
2018-12-20T11:22:21.723Z,12.47
2018-12-20T11:24:53.937Z,8.68
2018-12-20T11:30:18.438Z,9.23
2018-12-20T11:32:48.163Z,8.20
2018-12-20T11:35:16.538Z,7.83
2018-12-20T11:37:45.024Z,7.90
2018-12-20T11:40:25.335Z,6.87
2018-12-20T11:42:53.573Z,7.30
2018-12-20T11:48:16.225Z,9.18
2018-12-20T11:50:45.998Z,10.13
2018-12-20T11:53:20.531Z,7.65
2018-12-20T11:55:50.281Z,10.30
2018-12-20T11:58:20.537Z,9.40
2018-12-20T12:00:52.570Z,10.05
2018-12-20T12:06:20.600Z,9.05
2018-12-20T12:08:52.825Z,7.87
2018-12-20T12:11:24.681Z,14.83
2018-12-20T12:13:56.741Z,9.50
2018-12-20T12:16:28.844Z,9.70
2018-12-20T12:19:00.309Z,9.50
2018-12-20T12:21:34.837Z,8.85
2018-12-20T12:24:09.145Z,11.83
2018-12-20T12:26:37.549Z,9.65
2018-12-20T12:29:06.116Z,12.95
2018-12-20T12:31:40.433Z,9.15
2018-12-20T12:37:07.257Z,9.28
2018-12-20T12:39:39.368Z,8.65
2018-12-20T12:42:11.493Z,10.20
2018-12-20T12:44:41.723Z,7.55
2018-12-20T12:47:13.756Z,9.95
2018-12-20T12:49:45.416Z,8.75
2018-12-20T12:52:17.549Z,11.43
2018-12-20T12:54:49.741Z,9.35
2018-12-20T12:57:22.418Z,7.00
2018-12-20T12:59:54.822Z,10.82
2018-12-20T13:02:28.701Z,8.98
2018-12-20T13:08:05.402Z,6.97
2018-12-20T13:10:35.008Z,12.18
2018-12-20T13:13:03.582Z,9.45
2018-12-20T13:15:31.969Z,7.03
2018-12-20T13:18:13.519Z,7.58
2018-12-20T13:20:35.364Z,9.35
2018-12-20T13:23:03.764Z,8.38
2018-12-20T13:25:32.143Z,7.87
2018-12-20T13:33:52.290Z,9.90
2018-12-20T13:36:20.700Z,10.45
2018-12-20T13:38:49.246Z,9.45
2018-12-20T13:41:17.820Z,8.40
2018-12-20T13:43:46.501Z,10.78
2018-12-20T13:46:15.106Z,8.60
2018-12-20T13:48:46.114Z,9.20
2018-12-20T13:51:14.284Z,9.35
2018-12-20T13:53:42.707Z,7.87
2018-12-20T13:56:26.131Z,11.12
2018-12-20T13:58:54.380Z,9.68
2018-12-20T14:01:22.604Z,8.00
2018-12-20T14:04:03.746Z,7.87
2018-12-20T14:06:32.020Z,7.72
2018-12-20T14:09:07.692Z,8.83
2018-12-20T14:11:38.029Z,8.83
2018-12-20T14:14:06.287Z,8.58
2018-12-20T14:16:46.638Z,7.58
2018-12-20T14:19:21.020Z,18.90
2018-12-20T14:21:49.491Z,8.80
2018-12-20T14:24:35.829Z,11.40
2018-12-20T14:29:33.522Z,12.37
2018-12-20T14:38:11.479Z,11.83
2018-12-20T14:43:36.111Z,9.40
2018-12-20T14:46:04.532Z,12.98
2018-12-20T14:48:44.833Z,12.33
2018-12-20T14:51:33.921Z,13.88
2018-12-20T14:54:05.180Z,9.85
2018-12-20T14:56:33.341Z,9.60
2018-12-20T15:01:58.122Z,7.85
2018-12-20T15:04:26.672Z,10.10
2018-12-20T15:06:55.006Z,12.33
2018-12-20T15:09:29.022Z,9.78
2018-12-20T15:11:57.232Z,17.55
2018-12-20T15:14:28.799Z,8.58
2018-12-20T15:16:56.976Z,11.40
2018-12-20T15:19:25.406Z,11.35
2018-12-20T15:21:53.694Z,9.70
2018-12-20T15:24:21.942Z,10.98
2018-12-20T15:26:50.301Z,14.28
2018-12-20T15:29:18.504Z,15.05
2018-12-20T15:31:53.370Z,10.80
2018-12-20T15:34:16.914Z,9.58
2018-12-20T15:36:45.090Z,10.18
2018-12-20T15:39:14.184Z,9.88
2018-12-20T15:41:42.618Z,8.55
2018-12-20T15:44:10.809Z,8.48
2018-12-20T15:46:38.964Z,9.85
2018-12-20T15:49:07.225Z,8.88
2018-12-20T15:51:35.498Z,8.45
2018-12-20T15:54:03.853Z,11.93
2018-12-20T15:56:32.057Z,11.95
2018-12-20T15:59:00.245Z,10.43
2018-12-20T16:01:28.644Z,13.72
2018-12-20T16:03:56.888Z,10.28
2018-12-20T16:06:25.099Z,11.10
2018-12-20T16:08:53.269Z,14.05
2018-12-20T16:11:21.448Z,9.90
2018-12-20T16:13:49.712Z,9.00
2018-12-20T16:16:17.914Z,11.75
2018-12-20T16:18:46.094Z,8.25
2018-12-20T16:21:14.818Z,8.00
2018-12-20T16:23:46.660Z,13.00
2018-12-20T16:26:14.850Z,9.30
2018-12-20T16:28:43.120Z,10.60
2018-12-20T16:31:11.332Z,11.50
2018-12-20T16:33:39.523Z,11.95
2018-12-20T16:36:07.810Z,9.80
2018-12-20T16:38:36.195Z,8.08
2018-12-20T16:41:04.476Z,10.03
2018-12-20T16:43:32.636Z,9.78
2018-12-20T16:46:01.676Z,8.88
2018-12-20T16:48:30.814Z,8.33
2018-12-20T16:50:59.018Z,9.85
2018-12-20T16:53:27.299Z,9.40
2018-12-20T16:55:55.590Z,10.13
2018-12-20T16:58:23.801Z,14.20
2018-12-20T17:00:52.102Z,10.10
2018-12-20T17:03:20.450Z,11.93
2018-12-20T17:05:48.631Z,9.33
2018-12-20T17:08:16.880Z,8.40
2018-12-20T17:10:45.503Z,9.55
2018-12-20T17:13:13.788Z,11.05
2018-12-20T17:15:42.063Z,12.68
2018-12-20T17:18:10.330Z,9.08
2018-12-20T17:20:38.535Z,7.35
2018-12-20T17:23:06.753Z,10.90
2018-12-20T17:25:35.038Z,10.20
2018-12-20T17:28:03.653Z,12.45
2018-12-20T17:30:31.866Z,8.35
2018-12-20T17:33:00.293Z,8.40
2018-12-20T17:35:29.315Z,7.00
2018-12-20T17:37:57.490Z,12.82
2018-12-20T17:40:25.788Z,7.60
2018-12-20T17:42:57.501Z,9.98
2018-12-20T17:45:29.664Z,12.28
2018-12-20T17:47:59.786Z,9.43
2018-12-20T17:50:31.759Z,8.58
2018-12-20T17:53:03.713Z,7.53
2018-12-20T18:02:08.082Z,8.48
2018-12-20T18:04:40.266Z,9.53
2018-12-20T18:07:10.486Z,9.98
2018-12-20T18:09:40.594Z,11.20
2018-12-20T18:12:13.097Z,7.22
2018-12-20T18:14:44.652Z,7.03
2018-12-20T18:17:19.022Z,8.98
2018-12-20T18:22:45.577Z,8.80
2018-12-20T18:25:16.971Z,8.68
2018-12-20T18:28:01.903Z,9.33
2018-12-20T18:30:33.505Z,9.13
2018-12-20T18:36:02.621Z,8.75
2018-12-20T18:38:53.484Z,11.20
2018-12-20T18:41:25.136Z,9.20
2018-12-20T18:49:50.146Z,8.88
2018-12-20T18:52:40.714Z,8.95
2018-12-20T19:01:07.082Z,7.95
2018-12-20T19:03:41.188Z,10.55
2018-12-20T19:06:15.212Z,8.90
2018-12-20T19:08:46.668Z,9.33
2018-12-20T19:11:33.550Z,8.50
2018-12-20T19:14:20.075Z,10.75
2018-12-20T19:19:56.674Z,12.10
2018-12-20T19:25:24.244Z,8.00
2018-12-20T19:30:52.161Z,7.87
2018-12-20T19:33:24.013Z,8.88
2018-12-20T19:35:55.759Z,18.17
2018-12-20T19:38:28.056Z,8.43
2018-12-20T19:41:02.658Z,8.63
2018-12-20T19:43:31.313Z,8.75
2018-12-20T19:45:59.768Z,8.13
2018-12-20T19:48:30.998Z,8.03
2018-12-20T19:53:58.564Z,7.40
2018-12-20T19:56:26.805Z,7.90
2018-12-20T19:58:54.997Z,8.65
2018-12-20T20:01:23.486Z,7.60
2018-12-20T20:03:51.765Z,8.78
2018-12-20T20:06:20.160Z,7.53
2018-12-20T20:08:48.421Z,8.93
2018-12-20T20:11:16.597Z,10.13
2018-12-20T20:13:44.791Z,8.23
2018-12-20T20:16:12.984Z,7.85
2018-12-20T20:18:41.186Z,10.65
2018-12-20T20:21:09.484Z,7.83
2018-12-20T20:23:37.665Z,7.00
2018-12-20T20:26:05.896Z,8.05
2018-12-20T20:28:34.070Z,9.28
2018-12-20T20:31:02.633Z,12.33
2018-12-20T20:33:30.905Z,11.38
2018-12-20T20:35:59.064Z,8.63
2018-12-20T20:38:27.464Z,9.33
2018-12-20T20:40:56.739Z,10.15
2018-12-20T20:43:24.920Z,9.08
2018-12-20T20:45:53.226Z,7.78
2018-12-20T20:48:21.380Z,7.97
2018-12-20T20:50:49.573Z,8.23
2018-12-20T20:53:18.053Z,7.95
2018-12-20T20:55:46.236Z,8.60
2018-12-20T20:58:14.408Z,7.80
2018-12-20T21:00:42.813Z,9.80
2018-12-20T21:03:11.008Z,8.80
2018-12-20T21:05:39.260Z,7.70
2018-12-20T21:08:07.522Z,6.60
2018-12-20T21:10:35.715Z,8.13
2018-12-20T21:13:03.906Z,7.65
2018-12-20T21:15:32.092Z,8.60
2018-12-20T21:18:00.289Z,8.68
2018-12-20T21:20:30.901Z,9.38
2018-12-20T21:22:58.708Z,8.38
2018-12-20T21:25:26.891Z,9.15
2018-12-20T21:27:55.068Z,7.30
2018-12-20T21:30:23.236Z,8.93
2018-12-20T21:32:51.416Z,10.68
2018-12-20T21:35:19.672Z,9.28
2018-12-20T21:37:47.868Z,12.68
2018-12-20T21:40:16.293Z,8.95
2018-12-20T21:42:44.508Z,8.83
2018-12-20T21:45:12.843Z,7.87
2018-12-20T21:47:41.217Z,7.55
2018-12-20T21:50:10.877Z,11.75
2018-12-20T21:52:39.179Z,9.10
2018-12-20T21:55:08.877Z,18.07
2018-12-20T21:57:38.346Z,7.42
2018-12-20T22:00:09.241Z,9.38
2018-12-20T22:02:38.145Z,9.50
2018-12-20T22:05:08.475Z,7.80
2018-12-20T22:10:23.214Z,11.25
2018-12-20T22:12:51.644Z,7.60
2018-12-20T22:15:19.849Z,11.88
2018-12-20T22:17:48.019Z,8.38
2018-12-20T22:20:16.235Z,8.20
2018-12-20T22:22:44.845Z,7.85
2018-12-20T22:25:13.053Z,12.58
2018-12-20T22:27:41.263Z,8.38
2018-12-20T22:30:10.246Z,6.95
2018-12-20T22:32:39.059Z,8.30
2018-12-20T22:35:08.489Z,9.23
2018-12-20T22:37:36.692Z,9.13
2018-12-20T22:40:06.977Z,7.55
2018-12-20T22:42:35.388Z,9.08
2018-12-20T22:45:06.675Z,8.65
2018-12-20T22:47:34.881Z,10.08
2018-12-20T22:50:04.333Z,8.73
2018-12-20T22:52:32.516Z,9.43
2018-12-20T22:55:02.330Z,8.83
2018-12-20T22:57:30.635Z,8.15
2018-12-20T22:59:58.821Z,12.35
2018-12-20T23:02:27.008Z,12.53
2018-12-20T23:04:55.387Z,8.15
2018-12-20T23:07:23.661Z,8.13
2018-12-20T23:09:52.171Z,8.28
2018-12-20T23:12:22.335Z,7.20
2018-12-20T23:14:50.700Z,7.05
2018-12-20T23:17:19.003Z,12.78
2018-12-20T23:19:47.397Z,10.78
2018-12-20T23:22:15.868Z,7.70
2018-12-20T23:24:44.136Z,9.60
2018-12-20T23:27:12.336Z,10.10
2018-12-20T23:29:40.515Z,7.92
2018-12-20T23:32:08.856Z,8.40
2018-12-20T23:34:38.080Z,10.25
2018-12-20T23:37:06.277Z,9.38
2018-12-20T23:39:34.474Z,11.25
2018-12-20T23:42:03.177Z,9.88
2018-12-20T23:44:31.610Z,7.08
2018-12-20T23:46:59.885Z,7.80
2018-12-20T23:49:28.277Z,9.75
2018-12-20T23:51:56.453Z,8.08
2018-12-20T23:54:24.639Z,10.23
2018-12-20T23:56:52.801Z,7.87
2018-12-20T23:59:21.056Z,10.18
